Time;durP1;ratioP1;P1;durP2;ratioP2;P2;SDS_P1;SDS_P2;PMS_P1;PMS_P2;Temp;Humidity;BMP_temperature;BMP_pressure;BME280_temperature;BME280_humidity;BME280_pressure;Samples;Min_cycle;Max_cycle;Signal;HPM_P1;HPM_P2
2022/10/02 00:00:28;;;;;;;8.70;2.63;;;11.40;99.90;;;;;;5069234;28;20586;-79
2022/10/02 00:03:00;;;;;;;7.47;3.20;;;11.40;99.90;;;;;;5068442;28;20207;-79
2022/10/02 00:05:33;;;;;;;11.57;2.70;;;11.30;99.90;;;;;;5068077;28;20255;-79
2022/10/02 00:08:05;;;;;;;7.67;2.70;;;11.30;99.90;;;;;;5067543;28;20199;-80
2022/10/02 00:10:38;;;;;;;9.37;2.50;;;11.20;99.90;;;;;;5063337;28;20209;-79
2022/10/02 00:13:12;;;;;;;7.17;2.57;;;11.30;99.90;;;;;;5068287;28;20213;-79
2022/10/02 00:15:41;;;;;;;7.90;2.37;;;11.30;99.90;;;;;;5067929;28;20428;-79
2022/10/02 00:18:12;;;;;;;4.87;1.77;;;11.30;99.90;;;;;;5077031;28;20207;-79
2022/10/02 00:20:44;;;;;;;10.20;2.53;;;11.30;99.90;;;;;;5071118;28;20210;-79
2022/10/02 00:23:17;;;;;;;7.03;2.37;;;11.30;99.90;;;;;;5069616;28;20205;-80
2022/10/02 00:25:49;;;;;;;8.80;2.73;;;11.30;99.90;;;;;;5073409;28;20218;-80
2022/10/02 00:28:27;;;;;;;12.33;2.90;;;11.40;99.90;;;;;;5074717;28;20209;-80
2022/10/02 00:31:18;;;;;;;8.53;2.33;;;11.40;99.90;;;;;;5073266;28;20210;-79
2022/10/02 00:33:53;;;;;;;7.27;2.30;;;11.30;99.90;;;;;;5072907;28;20206;-80
2022/10/02 00:36:34;;;;;;;11.23;2.40;;;11.40;99.90;;;;;;5071015;28;20234;-79
2022/10/02 00:39:11;;;;;;;8.23;2.80;;;11.30;99.90;;;;;;5071434;28;20213;-79
2022/10/02 00:42:09;;;;;;;6.70;2.20;;;11.30;99.90;;;;;;5069238;28;20212;-80
2022/10/02 00:45:15;;;;;;;5.93;2.63;;;11.30;99.90;;;;;;5070931;28;20199;-80
2022/10/02 00:47:53;;;;;;;8.33;2.20;;;11.30;99.90;;;;;;5075223;28;20245;-79
2022/10/02 00:50:33;;;;;;;5.90;1.97;;;11.30;99.90;;;;;;5076050;28;20595;-80
2022/10/02 00:53:14;;;;;;;7.30;2.23;;;11.30;99.90;;;;;;5071170;28;20205;-79
2022/10/02 00:56:02;;;;;;;8.07;2.43;;;11.40;99.90;;;;;;5069552;28;20679;-80
2022/10/02 00:58:54;;;;;;;5.83;2.30;;;11.50;99.90;;;;;;5070375;28;20259;-80
2022/10/02 01:01:29;;;;;;;11.27;3.10;;;11.50;99.90;;;;;;5070194;28;20198;-80
2022/10/02 01:03:56;;;;;;;8.77;2.83;;;11.60;99.90;;;;;;5073174;28;20212;-80
2022/10/02 01:06:25;;;;;;;8.80;2.87;;;11.40;99.90;;;;;;5070251;28;20226;-80
2022/10/02 01:08:52;;;;;;;8.43;3.67;;;11.30;99.90;;;;;;5071829;28;20213;-81
2022/10/02 01:11:20;;;;;;;9.77;3.20;;;11.40;99.90;;;;;;5071749;28;20198;-80
2022/10/02 01:13:48;;;;;;;15.57;3.30;;;11.40;99.90;;;;;;5070285;28;20202;-80
2022/10/02 01:16:18;;;;;;;13.23;3.37;;;11.40;99.90;;;;;;5072183;28;20230;-79
2022/10/02 01:18:46;;;;;;;7.93;2.60;;;11.50;99.90;;;;;;5072345;28;20206;-79
2022/10/02 01:21:19;;;;;;;8.07;3.13;;;11.50;99.90;;;;;;5070340;28;20206;-80
2022/10/02 01:23:51;;;;;;;4.83;2.90;;;11.60;99.90;;;;;;5065672;28;20202;-79
2022/10/02 01:26:20;;;;;;;8.90;3.10;;;11.50;99.90;;;;;;5068775;28;20229;-79
2022/10/02 01:28:47;;;;;;;7.10;2.87;;;11.60;99.90;;;;;;5069635;28;20643;-80
2022/10/02 01:31:14;;;;;;;8.07;3.60;;;11.70;99.90;;;;;;5072198;28;20572;-80
2022/10/02 01:33:42;;;;;;;11.30;3.70;;;11.50;99.90;;;;;;5072277;28;20231;-80
2022/10/02 01:36:10;;;;;;;8.70;3.73;;;11.50;99.90;;;;;;5070198;28;20694;-80
2022/10/02 01:38:38;;;;;;;9.43;3.00;;;11.50;99.90;;;;;;5069923;28;20209;-79
2022/10/02 01:41:07;;;;;;;12.93;3.23;;;11.60;99.90;;;;;;5072126;28;20225;-80
2022/10/02 01:43:38;;;;;;;13.30;2.90;;;11.50;99.90;;;;;;5071916;28;20745;-80
2022/10/02 01:46:33;;;;;;;10.93;3.40;;;11.50;99.90;;;;;;5075871;28;20225;-80
2022/10/02 01:49:10;;;;;;;7.07;3.30;;;11.50;99.90;;;;;;5070783;28;20513;-80
2022/10/02 01:52:06;;;;;;;11.27;4.07;;;11.50;99.90;;;;;;5070057;28;20201;-80
2022/10/02 01:54:44;;;;;;;8.53;3.53;;;11.50;99.90;;;;;;5070100;28;20539;-80
2022/10/02 01:57:23;;;;;;;9.30;4.00;;;11.50;99.90;;;;;;5069683;28;20229;-80
2022/10/02 02:00:04;;;;;;;15.93;4.37;;;11.50;99.90;;;;;;5067969;28;20213;-80
2022/10/02 02:02:39;;;;;;;13.40;4.93;;;11.40;99.90;;;;;;5070631;28;20198;-80
2022/10/02 02:05:10;;;;;;;11.70;5.20;;;11.50;99.90;;;;;;5067871;28;20204;-80
2022/10/02 02:07:46;;;;;;;15.00;4.77;;;11.50;99.90;;;;;;5063553;28;20230;-80
2022/10/02 02:10:21;;;;;;;13.57;5.70;;;11.40;99.90;;;;;;5067512;28;20210;-80
2022/10/02 02:12:55;;;;;;;19.47;5.53;;;11.40;99.90;;;;;;5070988;28;20198;-80
2022/10/02 02:15:28;;;;;;;12.77;4.87;;;11.50;99.90;;;;;;5064317;28;20222;-80
2022/10/02 02:18:00;;;;;;;11.70;5.37;;;11.40;99.90;;;;;;5074740;28;20194;-80
2022/10/02 02:20:29;;;;;;;19.60;5.60;;;11.40;99.90;;;;;;5070839;28;20202;-80
2022/10/02 02:23:04;;;;;;;12.03;5.57;;;11.50;99.90;;;;;;5073785;28;20206;-80
2022/10/02 02:25:33;;;;;;;22.00;6.50;;;11.40;99.90;;;;;;5067993;28;20217;-80
2022/10/02 02:28:06;;;;;;;14.47;5.23;;;11.40;99.90;;;;;;5068173;28;20204;-80
2022/10/02 02:30:38;;;;;;;14.00;6.20;;;11.40;99.90;;;;;;5070161;28;20213;-80
2022/10/02 02:33:10;;;;;;;14.60;5.83;;;11.40;99.90;;;;;;5072815;28;20202;-80
2022/10/02 02:35:41;;;;;;;17.60;6.70;;;11.50;99.90;;;;;;5073373;28;20290;-80
2022/10/02 02:38:12;;;;;;;18.83;7.03;;;11.50;99.90;;;;;;5074316;28;20205;-80
2022/10/02 02:40:43;;;;;;;17.10;7.00;;;11.50;99.90;;;;;;5069020;28;20206;-80
2022/10/02 02:43:16;;;;;;;16.40;7.60;;;11.50;99.90;;;;;;5075719;28;20573;-80
2022/10/02 02:45:49;;;;;;;19.23;8.33;;;11.60;99.90;;;;;;5074583;28;20234;-79
2022/10/02 02:48:20;;;;;;;19.83;8.13;;;11.50;99.90;;;;;;5071591;28;20202;-80
2022/10/02 02:50:52;;;;;;;15.83;8.10;;;11.50;99.90;;;;;;5072433;28;20202;-80
2022/10/02 02:53:24;;;;;;;18.73;9.13;;;11.50;99.90;;;;;;5074997;28;20677;-80
2022/10/02 02:55:55;;;;;;;21.23;9.67;;;11.50;99.90;;;;;;5075320;28;20218;-80
2022/10/02 02:58:27;;;;;;;18.83;9.00;;;11.50;99.90;;;;;;5075349;28;20198;-80
2022/10/02 03:00:55;;;;;;;20.53;9.00;;;11.50;99.90;;;;;;5073204;28;20198;-80
2022/10/02 03:03:22;;;;;;;22.63;9.87;;;11.50;99.90;;;;;;5075925;28;20194;-80
2022/10/02 03:05:52;;;;;;;21.70;9.80;;;11.50;99.90;;;;;;5083297;28;20240;-80
2022/10/02 03:08:23;;;;;;;20.47;10.40;;;11.50;99.90;;;;;;5082692;28;20285;-80
2022/10/02 03:11:04;;;;;;;17.23;10.13;;;11.60;99.90;;;;;;5077441;28;20570;-80
2022/10/02 03:13:44;;;;;;;23.20;10.60;;;11.60;99.90;;;;;;5076378;28;20198;-80
2022/10/02 03:16:25;;;;;;;24.30;11.10;;;11.50;99.90;;;;;;5076374;28;20226;-80
2022/10/02 03:19:06;;;;;;;25.83;11.40;;;11.60;99.90;;;;;;5071619;28;20206;-80
2022/10/02 03:21:39;;;;;;;25.20;10.80;;;11.70;99.90;;;;;;5077216;28;20198;-80
2022/10/02 03:24:12;;;;;;;21.80;10.90;;;11.70;99.90;;;;;;5079546;28;20212;-80
2022/10/02 03:26:44;;;;;;;21.63;10.87;;;11.70;99.90;;;;;;5078354;28;20222;-80
2022/10/02 03:29:18;;;;;;;22.43;10.47;;;11.70;99.90;;;;;;5077195;28;20210;-80
2022/10/02 03:31:47;;;;;;;21.73;9.90;;;11.80;99.90;;;;;;5075253;28;20210;-80
2022/10/02 03:34:14;;;;;;;21.00;11.10;;;11.80;99.90;;;;;;5079041;28;20578;-80
2022/10/02 03:36:41;;;;;;;22.83;9.13;;;11.90;99.90;;;;;;5077102;28;20233;-80
2022/10/02 03:39:09;;;;;;;19.50;10.40;;;12.00;99.90;;;;;;5078870;28;20199;-80
2022/10/02 03:41:36;;;;;;;20.50;10.53;;;12.00;99.90;;;;;;5077048;28;20670;-80
2022/10/02 03:44:03;;;;;;;22.40;10.83;;;12.10;99.90;;;;;;5077746;28;20234;-79
2022/10/02 03:46:30;;;;;;;22.07;10.57;;;12.30;99.90;;;;;;5075897;28;20228;-80
2022/10/02 03:48:58;;;;;;;22.90;11.93;;;12.30;99.90;;;;;;5077694;28;20244;-80
2022/10/02 03:51:25;;;;;;;26.90;12.67;;;12.20;99.90;;;;;;5078992;28;20202;-80
2022/10/02 03:53:52;;;;;;;23.53;12.00;;;12.40;99.90;;;;;;5076983;28;20209;-79
2022/10/02 03:56:29;;;;;;;29.87;12.70;;;12.50;99.90;;;;;;5075825;28;20218;-80
2022/10/02 03:59:00;;;;;;;24.33;12.50;;;12.40;99.90;;;;;;5076564;28;20201;-80
2022/10/02 04:01:31;;;;;;;25.13;13.97;;;12.50;99.90;;;;;;5075469;28;20210;-80
2022/10/02 04:04:06;;;;;;;26.60;13.77;;;12.50;99.90;;;;;;5076376;28;20202;-80
2022/10/02 04:06:43;;;;;;;22.17;11.47;;;12.40;99.90;;;;;;5076280;28;20234;-80
2022/10/02 04:09:16;;;;;;;21.53;11.37;;;12.50;99.90;;;;;;5077926;28;20205;-80
2022/10/02 04:11:47;;;;;;;23.80;12.37;;;12.40;99.90;;;;;;5076552;28;20209;-79
2022/10/02 04:14:18;;;;;;;22.67;12.20;;;12.40;99.90;;;;;;5079711;28;20201;-80
2022/10/02 04:16:52;;;;;;;27.43;13.27;;;12.40;99.90;;;;;;5075832;28;20222;-80
2022/10/02 04:19:23;;;;;;;24.83;13.33;;;12.40;99.90;;;;;;5074183;28;20202;-80
2022/10/02 04:21:54;;;;;;;24.70;12.70;;;12.40;99.90;;;;;;5071049;28;20206;-80
2022/10/02 04:24:29;;;;;;;25.07;13.03;;;12.40;99.90;;;;;;5077301;28;20576;-80
2022/10/02 04:27:02;;;;;;;20.17;11.27;;;12.40;99.90;;;;;;5073227;28;20209;-80
2022/10/02 04:29:35;;;;;;;25.93;12.93;;;12.40;99.90;;;;;;5077080;28;20582;-80
2022/10/02 04:32:11;;;;;;;23.27;12.93;;;12.40;99.90;;;;;;5077969;28;20217;-80
2022/10/02 04:34:40;;;;;;;28.90;13.20;;;12.40;99.90;;;;;;5075435;28;20214;-80
2022/10/02 04:37:30;;;;;;;27.33;13.57;;;12.50;99.90;;;;;;5076830;28;20580;-79
2022/10/02 04:40:11;;;;;;;40.17;13.93;;;12.50;99.90;;;;;;5077569;28;20202;-80
2022/10/02 04:42:53;;;;;;;26.57;13.07;;;12.50;99.90;;;;;;5077606;28;20205;-80
2022/10/02 04:45:35;;;;;;;33.70;15.20;;;12.40;99.90;;;;;;5076707;28;20206;-80
2022/10/02 04:48:27;;;;;;;25.90;13.97;;;12.50;99.90;;;;;;5074125;28;20199;-80
2022/10/02 04:51:05;;;;;;;23.87;13.30;;;12.60;99.90;;;;;;5076374;28;20201;-80
2022/10/02 04:53:55;;;;;;;26.33;13.40;;;12.50;99.90;;;;;;5077516;28;20214;-80
2022/10/02 04:56:45;;;;;;;28.03;14.03;;;12.40;99.90;;;;;;5072593;28;20222;-80
2022/10/02 04:59:26;;;;;;;26.57;13.27;;;12.40;99.90;;;;;;5071201;28;20194;-80
2022/10/02 05:02:07;;;;;;;24.20;13.83;;;12.40;99.90;;;;;;5076503;28;20232;-80
2022/10/02 05:04:54;;;;;;;25.30;14.33;;;12.50;99.90;;;;;;5076570;28;20205;-80
2022/10/02 05:07:45;;;;;;;25.40;15.03;;;12.50;99.90;;;;;;5076451;28;20716;-80
2022/10/02 05:10:29;;;;;;;27.23;14.17;;;12.50;99.90;;;;;;5077679;28;20210;-80
2022/10/02 05:13:08;;;;;;;30.07;15.37;;;12.50;99.90;;;;;;5075030;28;20216;-80
2022/10/02 05:15:59;;;;;;;24.37;15.13;;;12.50;99.90;;;;;;5076688;28;20198;-80
2022/10/02 05:18:50;;;;;;;28.03;15.33;;;12.50;99.90;;;;;;5075227;28;20198;-81
2022/10/02 05:21:40;;;;;;;25.60;14.67;;;12.50;99.90;;;;;;5069210;28;20204;-80
2022/10/02 05:24:26;;;;;;;29.93;15.30;;;12.40;99.90;;;;;;5075023;28;20207;-80
2022/10/02 05:27:18;;;;;;;26.27;14.27;;;12.40;99.90;;;;;;5075231;28;20221;-80
2022/10/02 05:30:05;;;;;;;27.40;14.43;;;12.30;99.90;;;;;;5073283;28;20210;-80
2022/10/02 05:32:55;;;;;;;26.93;14.73;;;12.30;99.90;;;;;;5076264;28;20559;-80
2022/10/02 05:35:39;;;;;;;26.50;14.83;;;12.20;99.90;;;;;;5075217;28;20222;-80
2022/10/02 05:38:19;;;;;;;28.60;14.70;;;12.20;99.90;;;;;;5072836;28;20229;-80
2022/10/02 05:40:55;;;;;;;24.77;14.70;;;12.10;99.90;;;;;;5076726;28;20214;-80
2022/10/02 05:43:30;;;;;;;28.60;15.90;;;12.10;99.90;;;;;;5080232;28;20207;-80
2022/10/02 05:45:59;;;;;;;28.27;15.47;;;12.00;99.90;;;;;;5075710;28;20693;-80
2022/10/02 05:48:28;;;;;;;27.17;15.33;;;12.00;99.90;;;;;;5075793;28;20214;-80
2022/10/02 05:50:59;;;;;;;26.83;14.37;;;12.10;99.90;;;;;;5075716;28;20210;-79
2022/10/02 05:53:35;;;;;;;26.80;14.00;;;12.10;99.90;;;;;;5073565;28;20213;-79
2022/10/02 05:56:09;;;;;;;29.27;14.57;;;12.10;99.90;;;;;;5074843;28;20222;-79
2022/10/02 05:58:44;;;;;;;24.70;14.03;;;12.10;99.90;;;;;;5076502;28;20202;-79
2022/10/02 06:01:15;;;;;;;29.77;15.00;;;12.10;99.90;;;;;;5083021;28;20202;-79
2022/10/02 06:03:48;;;;;;;26.27;14.80;;;12.10;99.90;;;;;;5074255;28;20202;-79
2022/10/02 06:06:18;;;;;;;26.63;13.30;;;12.10;99.90;;;;;;5073982;28;20248;-79
2022/10/02 06:08:50;;;;;;;24.67;14.37;;;12.20;99.90;;;;;;5075691;28;20214;-79
2022/10/02 06:11:26;;;;;;;23.83;14.80;;;12.30;99.90;;;;;;5072564;28;20213;-79
2022/10/02 06:13:58;;;;;;;27.33;15.27;;;12.40;99.90;;;;;;5068003;28;20265;-78
2022/10/02 06:16:32;;;;;;;26.03;15.30;;;12.40;99.90;;;;;;5070298;28;20227;-79
2022/10/02 06:19:07;;;;;;;26.93;14.23;;;12.40;99.90;;;;;;5062513;28;20198;-79
2022/10/02 06:21:40;;;;;;;29.27;14.97;;;12.40;99.90;;;;;;5070561;28;20202;-80
2022/10/02 06:24:15;;;;;;;24.67;14.07;;;12.40;99.90;;;;;;5072004;28;20203;-79
2022/10/02 06:26:48;;;;;;;23.70;13.40;;;12.50;99.90;;;;;;5068244;28;20214;-80
2022/10/02 06:29:21;;;;;;;23.40;13.17;;;12.50;99.90;;;;;;5070879;28;20575;-79
2022/10/02 06:31:54;;;;;;;26.87;13.20;;;12.50;99.90;;;;;;5067600;28;20697;-80
2022/10/02 06:34:22;;;;;;;27.07;13.27;;;12.40;99.90;;;;;;5069667;28;20202;-78
2022/10/02 06:37:24;;;;;;;24.17;11.60;;;12.50;99.90;;;;;;5071011;28;20222;-79
2022/10/02 06:40:10;;;;;;;25.00;12.27;;;12.60;99.90;;;;;;5079835;28;20292;-79
2022/10/02 06:42:48;;;;;;;25.40;12.03;;;12.60;99.90;;;;;;5072045;28;20211;-79
2022/10/02 06:45:21;;;;;;;26.73;12.43;;;12.50;99.90;;;;;;5076353;28;20202;-79
2022/10/02 06:48:00;;;;;;;20.97;11.13;;;12.70;99.90;;;;;;5078268;28;20198;-79
2022/10/02 06:50:38;;;;;;;21.67;11.37;;;12.80;99.90;;;;;;5073798;28;20209;-80
2022/10/02 06:53:29;;;;;;;23.43;11.60;;;12.80;99.90;;;;;;5075049;28;20667;-78
2022/10/02 06:56:07;;;;;;;19.57;10.40;;;13.00;99.90;;;;;;5071392;28;20651;-78
2022/10/02 06:58:59;;;;;;;22.57;10.83;;;13.10;99.90;;;;;;5075361;28;20650;-78
2022/10/02 07:01:37;;;;;;;22.67;10.83;;;13.20;99.90;;;;;;5080010;28;20200;-80
2022/10/02 07:04:17;;;;;;;21.43;10.77;;;13.40;99.90;;;;;;5080011;28;20213;-80
2022/10/02 07:06:58;;;;;;;22.00;11.30;;;13.40;99.90;;;;;;5081527;28;20228;-80
2022/10/02 07:09:43;;;;;;;20.37;10.30;;;13.30;99.90;;;;;;5080582;28;20212;-80
2022/10/02 07:12:20;;;;;;;23.17;11.43;;;13.30;99.90;;;;;;5081446;28;20190;-79
2022/10/02 07:15:18;;;;;;;26.27;14.20;;;13.30;99.90;;;;;;5081457;28;20194;-80
2022/10/02 07:17:57;;;;;;;19.70;10.67;;;13.30;99.90;;;;;;5063537;28;20232;-80
2022/10/02 07:20:35;;;;;;;20.43;11.00;;;13.30;99.90;;;;;;5080183;28;20205;-79
2022/10/02 07:23:23;;;;;;;22.67;10.03;;;13.40;99.90;;;;;;5079218;28;20297;-80
2022/10/02 07:26:21;;;;;;;18.83;9.83;;;13.60;99.90;;;;;;5071171;28;20744;-81
2022/10/02 07:28:53;;;;;;;20.27;9.57;;;14.10;99.90;;;;;;5082990;28;20202;-80
2022/10/02 07:31:32;;;;;;;14.77;8.60;;;15.10;99.90;;;;;;5078299;28;20543;-80
2022/10/02 07:34:15;;;;;;;17.00;7.50;;;16.40;99.90;;;;;;5077743;28;20209;-80
2022/10/02 07:36:51;;;;;;;17.42;9.00;;;15.10;99.90;;;;;;5079448;28;20228;-79
2022/10/02 07:39:32;;;;;;;16.77;7.77;;;14.60;99.90;;;;;;5076798;28;20586;-79
2022/10/02 07:42:30;;;;;;;15.87;8.10;;;14.30;99.90;;;;;;5079244;28;20198;-79
2022/10/02 07:45:26;;;;;;;16.87;7.37;;;14.20;99.90;;;;;;5075752;28;20200;-79
2022/10/02 07:48:20;;;;;;;18.40;8.13;;;14.10;99.90;;;;;;5077382;28;20271;-79
2022/10/02 07:51:02;;;;;;;20.23;8.37;;;14.10;99.90;;;;;;5074191;28;20206;-79
2022/10/02 07:53:37;;;;;;;19.40;8.77;;;14.00;99.90;;;;;;5072633;28;20263;-79
2022/10/02 07:56:07;;;;;;;17.20;8.93;;;14.10;99.90;;;;;;5071356;28;20217;-79
2022/10/02 07:58:40;;;;;;;20.10;8.70;;;14.20;99.90;;;;;;5072693;28;20271;-80
2022/10/02 08:01:13;;;;;;;18.93;9.20;;;14.30;99.90;;;;;;5074895;28;20216;-79
2022/10/02 08:03:47;;;;;;;19.43;8.63;;;14.60;99.90;;;;;;5077251;28;20218;-79
2022/10/02 08:06:15;;;;;;;19.00;9.67;;;14.60;99.90;;;;;;5077734;28;20226;-79
2022/10/02 08:08:49;;;;;;;17.07;9.13;;;14.50;99.90;;;;;;5076776;28;20217;-79
2022/10/02 08:11:21;;;;;;;17.13;9.27;;;14.50;99.90;;;;;;5070764;28;20270;-79
2022/10/02 08:13:53;;;;;;;18.20;9.40;;;14.50;99.90;;;;;;5074617;28;20935;-79
2022/10/02 08:16:22;;;;;;;19.07;9.30;;;14.60;99.90;;;;;;5075324;28;20233;-80
2022/10/02 08:18:56;;;;;;;19.20;9.20;;;14.50;99.90;;;;;;5075090;28;20222;-80
2022/10/02 08:21:25;;;;;;;16.40;10.17;;;14.60;99.90;;;;;;5074759;28;20214;-80
2022/10/02 08:23:56;;;;;;;17.67;9.60;;;14.60;99.90;;;;;;5075473;28;20217;-80
2022/10/02 08:26:30;;;;;;;19.17;9.07;;;14.70;99.90;;;;;;5075227;28;20226;-80
2022/10/02 08:29:04;;;;;;;13.77;8.60;;;14.60;99.90;;;;;;5059180;28;20289;-81
2022/10/02 08:31:31;;;;;;;16.20;8.47;;;14.60;99.90;;;;;;5075689;28;20283;-80
2022/10/02 08:34:01;;;;;;;17.53;9.37;;;14.50;99.90;;;;;;5075554;28;20207;-81
2022/10/02 08:36:47;;;;;;;13.60;7.03;;;14.60;99.90;;;;;;5075613;28;20240;-80
2022/10/02 08:39:42;;;;;;;15.57;6.70;;;14.70;99.90;;;;;;5073910;28;20222;-79
2022/10/02 08:42:40;;;;;;;15.73;7.17;;;14.70;99.90;;;;;;5074678;28;20411;-80
2022/10/02 08:45:41;;;;;;;14.63;6.60;;;14.70;99.90;;;;;;5074956;28;20212;-80
2022/10/02 08:48:50;;;;;;;11.93;6.00;;;14.90;99.90;;;;;;5067752;28;20198;-80
2022/10/02 08:51:47;;;;;;;14.73;7.17;;;15.20;99.90;;;;;;5074641;28;20217;-80
2022/10/02 08:54:45;;;;;;;15.90;7.00;;;15.40;99.90;;;;;;5073762;28;20198;-80
2022/10/02 08:57:36;;;;;;;12.57;5.77;;;15.50;99.90;;;;;;5073686;28;20407;-80
2022/10/02 09:00:13;;;;;;;13.13;5.90;;;15.80;99.90;;;;;;5075482;28;20457;-81
2022/10/02 09:03:17;;;;;;;12.80;6.00;;;15.60;99.90;;;;;;5073022;28;20279;-80
2022/10/02 09:06:22;;;;;;;11.60;5.73;;;15.60;99.90;;;;;;5068877;28;20221;-81
2022/10/02 09:09:19;;;;;;;16.98;5.70;;;15.80;99.90;;;;;;5077459;28;20285;-80
2022/10/02 09:12:20;;;;;;;15.00;5.63;;;15.90;99.90;;;;;;5069522;28;20225;-80
2022/10/02 09:14:51;;;;;;;11.13;4.97;;;16.10;99.90;;;;;;5075573;28;20791;-80
2022/10/02 09:17:52;;;;;;;16.20;5.72;;;16.30;99.90;;;;;;5073542;28;20218;-80
2022/10/02 09:21:02;;;;;;;14.50;5.45;;;16.40;99.90;;;;;;5067732;28;20802;-80
2022/10/02 09:24:05;;;;;;;15.13;5.43;;;16.50;99.90;;;;;;5067074;28;20567;-81
2022/10/02 09:27:12;;;;;;;12.00;4.85;;;16.80;99.90;;;;;;5078188;28;20230;-81
2022/10/02 09:30:12;;;;;;;13.68;5.20;;;17.00;99.90;;;;;;5047603;28;20218;-79
2022/10/02 09:33:27;;;;;;;11.25;4.03;;;16.70;99.90;;;;;;5072439;28;20206;-79
2022/10/02 09:36:40;;;;;;;11.27;3.90;;;16.70;99.90;;;;;;5076614;28;20218;-79
2022/10/02 09:39:44;;;;;;;12.73;4.53;;;17.10;99.90;;;;;;5038348;28;20601;-79
2022/10/02 09:42:59;;;;;;;9.65;3.75;;;16.80;99.90;;;;;;5066750;28;20199;-80
2022/10/02 09:46:01;;;;;;;11.90;3.60;;;16.80;99.70;;;;;;5071347;28;20687;-82
2022/10/02 09:49:08;;;;;;;6.10;3.20;;;16.80;1.00;;;;;;5072486;28;20202;-82
2022/10/02 09:52:00;;;;;;;11.23;2.83;;;16.80;1.00;;;;;;5071200;28;20208;-81
2022/10/02 09:55:03;;;;;;;10.88;2.78;;;16.50;99.90;;;;;;5073415;28;20214;-81
2022/10/02 09:58:00;;;;;;;9.55;2.75;;;16.90;99.90;;;;;;5073992;28;20222;-81
2022/10/02 10:00:51;;;;;;;8.40;2.92;;;17.30;1.00;;;;;;5077000;28;20199;-81
2022/10/02 10:03:59;;;;;;;8.85;2.55;;;17.20;81.90;;;;;;5067639;28;20198;-82
2022/10/02 10:06:48;;;;;;;7.18;2.53;;;17.40;1.00;;;;;;5031834;28;20230;-81
2022/10/02 10:09:44;;;;;;;9.43;2.67;;;17.00;99.90;;;;;;5070627;28;20191;-81
2022/10/02 10:12:35;;;;;;;7.57;2.75;;;16.80;1.00;;;;;;5073373;28;20209;-80
2022/10/02 10:15:52;;;;;;;7.22;2.60;;;16.50;99.90;;;;;;5073978;28;20201;-80
2022/10/02 10:18:46;;;;;;;5.95;2.42;;;16.40;99.90;;;;;;5071291;28;20256;-80
2022/10/02 10:21:49;;;;;;;7.28;2.00;;;16.90;1.00;;;;;;5071490;28;20576;-80
2022/10/02 10:24:53;;;;;;;10.57;2.70;;;16.90;99.90;;;;;;5069246;28;20584;-77
2022/10/02 10:27:42;;;;;;;8.65;3.28;;;17.00;99.90;;;;;;5068776;28;20241;-79
2022/10/02 10:30:33;;;;;;;9.77;3.05;;;17.50;99.90;;;;;;5068285;28;20247;-78
2022/10/02 10:33:32;;;;;;;6.22;2.35;;;17.80;1.00;;;;;;5070536;28;20261;-78
2022/10/02 10:39:40;;;;;;;7.30;1.88;;;18.10;99.90;;;;;;5055719;28;20233;-80
2022/10/02 10:42:38;;;;;;;8.07;1.80;;;17.50;99.90;;;;;;5065543;28;20198;-79
2022/10/02 10:45:33;;;;;;;7.15;2.05;;;17.20;99.90;;;;;;5066144;28;20199;-78
2022/10/02 10:48:22;;;;;;;6.25;1.98;;;17.50;58.70;;;;;;5069825;28;20543;-82
2022/10/02 10:50:59;;;;;;;8.63;2.20;;;17.10;99.90;;;;;;5068996;28;20232;-82
2022/10/02 10:53:42;;;;;;;4.40;1.77;;;17.00;99.90;;;;;;5069037;28;20210;-83
2022/10/02 10:56:27;;;;;;;7.13;2.58;;;16.90;1.00;;;;;;5067150;28;20284;-82
2022/10/02 10:59:41;;;;;;;6.40;2.22;;;16.90;1.00;;;;;;5069417;28;20305;-81
2022/10/02 11:02:44;;;;;;;8.40;2.15;;;17.00;99.90;;;;;;5069776;28;20228;-80
2022/10/02 11:05:53;;;;;;;9.02;3.00;;;17.50;99.90;;;;;;5055000;28;20206;-81
2022/10/02 11:08:53;;;;;;;7.28;2.78;;;17.90;1.00;;;;;;5073065;28;20194;-80
2022/10/02 11:11:23;;;;;;;5.35;2.20;;;17.70;99.90;;;;;;5072211;28;20627;-79
2022/10/02 11:14:11;;;;;;;9.48;2.47;;;17.70;99.90;;;;;;5071495;28;20237;-80
2022/10/02 11:17:16;;;;;;;8.05;1.83;;;17.50;1.00;;;;;;5075007;28;20737;-79
2022/10/02 11:20:06;;;;;;;8.43;2.45;;;17.50;1.00;;;;;;5057864;28;20237;-80
2022/10/02 11:23:12;;;;;;;6.07;1.98;;;17.30;99.90;;;;;;5069538;28;20223;-83
2022/10/02 11:25:59;;;;;;;7.78;2.17;;;17.30;99.90;;;;;;5073564;28;20206;-81
2022/10/02 11:28:50;;;;;;;8.02;2.35;;;17.10;99.90;;;;;;5075290;28;20278;-80
2022/10/02 11:31:30;;;;;;;5.05;2.20;;;17.30;1.00;;;;;;5078157;28;20206;-82
2022/10/02 11:34:17;;;;;;;11.60;2.80;;;18.00;99.90;;;;;;5073667;28;20223;-81
2022/10/02 11:36:56;;;;;;;9.85;2.88;;;17.70;99.90;;;;;;5074762;28;20239;-81
2022/10/02 11:39:56;;;;;;;8.02;2.33;;;17.30;99.90;;;;;;5075489;28;20317;-81
2022/10/02 11:42:57;;;;;;;3.83;2.10;;;17.50;1.00;;;;;;5074447;28;20237;-80
2022/10/02 11:45:54;;;;;;;10.02;2.50;;;17.80;1.00;;;;;;5072786;28;20208;-80
2022/10/02 11:48:48;;;;;;;6.00;2.22;;;17.60;99.90;;;;;;5076266;28;20209;-81
2022/10/02 11:51:46;;;;;;;11.52;3.25;;;17.70;99.90;;;;;;5072980;28;20595;-80
2022/10/02 11:54:28;;;;;;;10.43;2.60;;;18.40;1.30;;;;;;5069111;28;20281;-81
2022/10/02 11:57:22;;;;;;;10.80;2.40;;;18.80;99.90;;;;;;5072278;28;20581;-81
2022/10/02 12:00:14;;;;;;;8.50;2.78;;;18.70;24.10;;;;;;5073847;28;20211;-83
2022/10/02 12:02:51;;;;;;;7.22;2.50;;;18.40;1.00;;;;;;5070930;28;20237;-82
2022/10/02 12:05:38;;;;;;;6.95;2.20;;;17.90;1.00;;;;;;5074587;28;20194;-82
2022/10/02 12:08:16;;;;;;;5.38;2.38;;;17.90;1.00;;;;;;5072409;28;20561;-83
2022/10/02 12:10:51;;;;;;;5.25;2.13;;;17.40;99.90;;;;;;5073974;28;20230;-82
2022/10/02 12:13:36;;;;;;;4.88;1.80;;;17.10;99.90;;;;;;5071756;28;20201;-81
2022/10/02 12:16:15;;;;;;;4.50;1.42;;;15.80;1.00;;;;;;5072179;28;20222;-82
2022/10/02 12:18:55;;;;;;;5.28;1.23;;;14.50;99.90;;;;;;5082930;28;20221;-80
2022/10/02 12:27:36;;;;;;;5.13;1.52;;;13.80;99.90;;;;;;5076910;28;20215;-81
2022/10/02 12:30:09;;;;;;;6.33;2.30;;;13.80;99.90;;;;;;5070597;28;20205;-80
2022/10/02 12:33:10;;;;;;;9.13;2.60;;;13.90;99.90;;;;;;5073448;28;20217;-80
2022/10/02 12:36:12;;;;;;;6.27;2.07;;;14.00;99.90;;;;;;5076605;28;20198;-81
2022/10/02 12:38:51;;;;;;;7.13;2.00;;;13.90;99.90;;;;;;5069599;28;20222;-80
2022/10/02 12:41:35;;;;;;;5.83;1.87;;;13.90;99.90;;;;;;5070501;28;20255;-81
2022/10/02 12:44:31;;;;;;;8.60;2.50;;;14.00;99.90;;;;;;5080998;28;20202;-81
2022/10/02 12:47:30;;;;;;;9.03;3.03;;;14.00;99.90;;;;;;5076122;28;20230;-80
2022/10/02 12:50:07;;;;;;;3.93;2.10;;;14.10;99.90;;;;;;5066422;28;20650;-81
2022/10/02 12:53:19;;;;;;;6.23;2.17;;;14.30;99.90;;;;;;5070861;28;20563;-82
2022/10/02 12:56:21;;;;;;;7.30;2.10;;;14.40;99.90;;;;;;5070750;28;20859;-80
2022/10/02 12:58:57;;;;;;;7.77;2.30;;;14.50;99.90;;;;;;5053911;28;20304;-81
2022/10/02 13:02:04;;;;;;;5.87;1.97;;;14.60;99.90;;;;;;5067753;28;20210;-82
2022/10/02 13:05:04;;;;;;;6.63;2.20;;;14.60;99.90;;;;;;5065011;28;20237;-81
2022/10/02 13:07:57;;;;;;;5.10;1.87;;;14.50;99.90;;;;;;5067689;28;20270;-82
2022/10/02 13:10:27;;;;;;;6.13;2.20;;;14.50;99.90;;;;;;5061077;28;20207;-81
2022/10/02 13:13:15;;;;;;;3.57;1.97;;;14.40;99.90;;;;;;5070534;28;20210;-80
2022/10/02 13:15:53;;;;;;;4.20;1.63;;;14.20;99.90;;;;;;5074988;28;20582;-81
2022/10/02 13:18:42;;;;;;;6.93;2.23;;;14.10;99.90;;;;;;5070680;28;20209;-81
2022/10/02 13:21:14;;;;;;;5.13;2.77;;;14.00;99.90;;;;;;5070104;28;20253;-81
2022/10/02 13:23:53;;;;;;;5.87;2.90;;;13.90;99.90;;;;;;5076080;28;20750;-82
2022/10/02 13:26:33;;;;;;;3.77;2.33;;;13.90;99.90;;;;;;5075986;28;20217;-81
2022/10/02 13:29:18;;;;;;;4.47;2.40;;;13.80;99.90;;;;;;5066637;28;20297;-81
2022/10/02 13:31:57;;;;;;;4.50;2.93;;;13.70;99.90;;;;;;5066758;28;20653;-81
2022/10/02 13:34:40;;;;;;;7.87;2.70;;;13.80;99.90;;;;;;5066108;28;20205;-81
2022/10/02 13:37:18;;;;;;;3.33;1.60;;;13.90;99.90;;;;;;5062095;28;20225;-83
2022/10/02 13:40:03;;;;;;;3.20;2.37;;;14.00;99.90;;;;;;5068516;28;20236;-81
2022/10/02 13:42:41;;;;;;;2.40;2.00;;;13.90;99.90;;;;;;5073113;28;20202;-80
2022/10/02 13:45:16;;;;;;;5.57;1.80;;;14.10;99.90;;;;;;5078257;28;20233;-82
2022/10/02 13:47:49;;;;;;;5.27;2.30;;;14.60;99.90;;;;;;5076035;28;20279;-81
2022/10/02 13:50:29;;;;;;;5.03;1.97;;;15.00;99.90;;;;;;5069701;28;20540;-81
2022/10/02 13:53:21;;;;;;;5.10;1.47;;;15.40;99.90;;;;;;5063413;28;20210;-81
2022/10/02 13:55:54;;;;;;;3.88;1.50;;;15.50;99.90;;;;;;5063510;28;20218;-80
2022/10/02 13:59:04;;;;;;;3.40;1.23;;;15.80;99.90;;;;;;5063982;28;20320;-79
2022/10/02 14:01:41;;;;;;;2.38;1.35;;;15.80;99.90;;;;;;5065983;28;20743;-79